sensor_id;sensor_type;location;lat;lon;timestamp;P1;durP1;ratioP1;P2;durP2;ratioP2
25988;SDS011;13778;48.236;9.894;2022-11-15T09:20:56;66.80;;;10.38;;
25988;SDS011;13778;48.236;9.894;2022-11-15T09:23:46;18.38;;;8.50;;
25988;SDS011;13778;48.236;9.894;2022-11-15T09:26:37;24.27;;;9.30;;
25988;SDS011;13778;48.236;9.894;2022-11-15T09:29:27;31.65;;;11.77;;
25988;SDS011;13778;48.236;9.894;2022-11-15T09:32:18;42.22;;;10.73;;
25988;SDS011;13778;48.236;9.894;2022-11-15T09:35:08;37.80;;;10.13;;
25988;SDS011;13778;48.236;9.894;2022-11-15T09:38:00;27.10;;;10.25;;
25988;SDS011;13778;48.236;9.894;2022-11-15T09:40:53;15.30;;;10.48;;
25988;SDS011;13778;48.236;9.894;2022-11-15T09:43:49;14.57;;;10.30;;
25988;SDS011;13778;48.236;9.894;2022-11-15T09:46:43;29.70;;;16.95;;
25988;SDS011;13778;48.236;9.894;2022-11-15T09:49:35;19.55;;;12.48;;
25988;SDS011;13778;48.236;9.894;2022-11-15T09:52:25;16.58;;;10.68;;
25988;SDS011;13778;48.236;9.894;2022-11-15T09:55:17;14.48;;;10.38;;
25988;SDS011;13778;48.236;9.894;2022-11-15T09:58:12;13.65;;;9.38;;
25988;SDS011;13778;48.236;9.894;2022-11-15T10:01:08;12.60;;;8.85;;
25988;SDS011;13778;48.236;9.894;2022-11-15T10:04:01;12.95;;;8.63;;
25988;SDS011;13778;48.236;9.894;2022-11-15T10:06:53;14.25;;;10.82;;
25988;SDS011;13778;48.236;9.894;2022-11-15T10:09:46;15.50;;;9.57;;
25988;SDS011;13778;48.236;9.894;2022-11-15T10:12:39;16.42;;;9.60;;
25988;SDS011;13778;48.236;9.894;2022-11-15T10:15:30;14.10;;;8.43;;
25988;SDS011;13778;48.236;9.894;2022-11-15T10:18:22;12.63;;;9.43;;
25988;SDS011;13778;48.236;9.894;2022-11-15T10:21:17;11.68;;;9.00;;
25988;SDS011;13778;48.236;9.894;2022-11-15T10:24:10;15.30;;;9.55;;
25988;SDS011;13778;48.236;9.894;2022-11-15T10:27:00;18.67;;;10.38;;
25988;SDS011;13778;48.236;9.894;2022-11-15T10:29:52;15.63;;;10.40;;
25988;SDS011;13778;48.236;9.894;2022-11-15T10:32:43;16.52;;;11.00;;
25988;SDS011;13778;48.236;9.894;2022-11-15T10:35:34;17.58;;;12.07;;
25988;SDS011;13778;48.236;9.894;2022-11-15T10:38:25;16.08;;;12.10;;
25988;SDS011;13778;48.236;9.894;2022-11-15T10:41:16;17.42;;;11.90;;
25988;SDS011;13778;48.236;9.894;2022-11-15T10:44:20;15.40;;;11.57;;
25988;SDS011;13778;48.236;9.894;2022-11-15T10:47:29;15.65;;;11.27;;
25988;SDS011;13778;48.236;9.894;2022-11-15T10:50:28;21.00;;;12.02;;
25988;SDS011;13778;48.236;9.894;2022-11-15T10:53:28;14.98;;;11.48;;
25988;SDS011;13778;48.236;9.894;2022-11-15T10:59:14;17.27;;;11.55;;
25988;SDS011;13778;48.236;9.894;2022-11-15T11:05:26;11.80;;;9.65;;
25988;SDS011;13778;48.236;9.894;2022-11-15T11:08:20;13.88;;;9.80;;
25988;SDS011;13778;48.236;9.894;2022-11-15T11:11:11;16.27;;;9.98;;
25988;SDS011;13778;48.236;9.894;2022-11-15T11:14:10;14.80;;;10.20;;
25988;SDS011;13778;48.236;9.894;2022-11-15T11:17:02;14.05;;;8.35;;
25988;SDS011;13778;48.236;9.894;2022-11-15T11:19:56;12.85;;;9.43;;
25988;SDS011;13778;48.236;9.894;2022-11-15T11:22:56;16.70;;;11.45;;
25988;SDS011;13778;48.236;9.894;2022-11-15T11:25:51;13.10;;;8.73;;
25988;SDS011;13778;48.236;9.894;2022-11-15T11:28:44;12.50;;;8.95;;
25988;SDS011;13778;48.236;9.894;2022-11-15T11:31:38;16.13;;;10.65;;
25988;SDS011;13778;48.236;9.894;2022-11-15T11:34:34;13.40;;;10.13;;
25988;SDS011;13778;48.236;9.894;2022-11-15T11:37:28;13.20;;;8.52;;
25988;SDS011;13778;48.236;9.894;2022-11-15T11:40:24;11.93;;;9.75;;
25988;SDS011;13778;48.236;9.894;2022-11-15T11:43:18;14.02;;;9.82;;
25988;SDS011;13778;48.236;9.894;2022-11-15T11:46:15;13.82;;;9.63;;
25988;SDS011;13778;48.236;9.894;2022-11-15T11:49:09;14.32;;;9.13;;
25988;SDS011;13778;48.236;9.894;2022-11-15T11:52:00;13.23;;;10.00;;
25988;SDS011;13778;48.236;9.894;2022-11-15T11:54:54;17.75;;;11.15;;
25988;SDS011;13778;48.236;9.894;2022-11-15T11:57:50;14.27;;;9.98;;
25988;SDS011;13778;48.236;9.894;2022-11-15T12:00:42;12.93;;;9.15;;
25988;SDS011;13778;48.236;9.894;2022-11-15T12:03:34;12.68;;;9.25;;
25988;SDS011;13778;48.236;9.894;2022-11-15T12:06:36;12.10;;;8.38;;
25988;SDS011;13778;48.236;9.894;2022-11-15T12:09:29;12.80;;;8.65;;
25988;SDS011;13778;48.236;9.894;2022-11-15T12:12:23;14.18;;;9.55;;
25988;SDS011;13778;48.236;9.894;2022-11-15T12:15:18;11.60;;;8.70;;
25988;SDS011;13778;48.236;9.894;2022-11-15T12:18:10;14.43;;;8.55;;
25988;SDS011;13778;48.236;9.894;2022-11-15T12:21:03;15.93;;;10.23;;
25988;SDS011;13778;48.236;9.894;2022-11-15T12:26:46;11.82;;;8.82;;
25988;SDS011;13778;48.236;9.894;2022-11-15T12:29:38;14.75;;;9.00;;
25988;SDS011;13778;48.236;9.894;2022-11-15T12:32:30;12.63;;;8.90;;
25988;SDS011;13778;48.236;9.894;2022-11-15T12:35:26;11.82;;;9.02;;
25988;SDS011;13778;48.236;9.894;2022-11-15T12:38:49;14.30;;;9.73;;
25988;SDS011;13778;48.236;9.894;2022-11-15T12:41:36;13.77;;;9.48;;
25988;SDS011;13778;48.236;9.894;2022-11-15T12:47:33;13.45;;;9.43;;
25988;SDS011;13778;48.236;9.894;2022-11-15T12:53:32;13.10;;;8.65;;
25988;SDS011;13778;48.236;9.894;2022-11-15T12:56:23;14.68;;;9.45;;
25988;SDS011;13778;48.236;9.894;2022-11-15T12:59:38;16.95;;;9.10;;
25988;SDS011;13778;48.236;9.894;2022-11-15T13:02:24;12.50;;;9.18;;
25988;SDS011;13778;48.236;9.894;2022-11-15T13:08:39;12.30;;;9.30;;
25988;SDS011;13778;48.236;9.894;2022-11-15T13:11:46;10.60;;;8.10;;
25988;SDS011;13778;48.236;9.894;2022-11-15T13:14:42;10.23;;;8.30;;
25988;SDS011;13778;48.236;9.894;2022-11-15T13:17:34;10.82;;;7.88;;
25988;SDS011;13778;48.236;9.894;2022-11-15T13:23:15;13.20;;;8.70;;
25988;SDS011;13778;48.236;9.894;2022-11-15T13:26:12;13.73;;;9.60;;
25988;SDS011;13778;48.236;9.894;2022-11-15T13:29:03;13.30;;;8.98;;
25988;SDS011;13778;48.236;9.894;2022-11-15T13:31:53;13.60;;;9.63;;
25988;SDS011;13778;48.236;9.894;2022-11-15T13:34:45;16.02;;;8.23;;
25988;SDS011;13778;48.236;9.894;2022-11-15T13:37:36;12.30;;;8.20;;
25988;SDS011;13778;48.236;9.894;2022-11-15T13:40:27;12.93;;;9.23;;
25988;SDS011;13778;48.236;9.894;2022-11-15T13:43:26;11.70;;;8.68;;
25988;SDS011;13778;48.236;9.894;2022-11-15T13:46:18;12.35;;;8.80;;
25988;SDS011;13778;48.236;9.894;2022-11-15T13:49:09;9.90;;;7.28;;
25988;SDS011;13778;48.236;9.894;2022-11-15T13:52:01;9.77;;;8.35;;
25988;SDS011;13778;48.236;9.894;2022-11-15T13:57:43;11.48;;;8.13;;
25988;SDS011;13778;48.236;9.894;2022-11-15T14:00:36;14.18;;;7.95;;
25988;SDS011;13778;48.236;9.894;2022-11-15T14:03:28;8.18;;;6.35;;
25988;SDS011;13778;48.236;9.894;2022-11-15T14:06:20;9.40;;;7.28;;
25988;SDS011;13778;48.236;9.894;2022-11-15T14:09:30;7.50;;;6.15;;
25988;SDS011;13778;48.236;9.894;2022-11-15T14:12:23;10.15;;;8.23;;
25988;SDS011;13778;48.236;9.894;2022-11-15T14:15:19;12.57;;;7.72;;
25988;SDS011;13778;48.236;9.894;2022-11-15T14:21:21;12.75;;;7.53;;
25988;SDS011;13778;48.236;9.894;2022-11-15T14:24:15;11.90;;;8.85;;
25988;SDS011;13778;48.236;9.894;2022-11-15T14:27:18;12.00;;;8.82;;
25988;SDS011;13778;48.236;9.894;2022-11-15T14:30:12;13.02;;;8.18;;
25988;SDS011;13778;48.236;9.894;2022-11-15T14:33:11;15.02;;;10.45;;
25988;SDS011;13778;48.236;9.894;2022-11-15T14:36:05;14.35;;;9.10;;
25988;SDS011;13778;48.236;9.894;2022-11-15T14:38:57;15.63;;;8.70;;
25988;SDS011;13778;48.236;9.894;2022-11-15T14:41:47;10.88;;;7.32;;
25988;SDS011;13778;48.236;9.894;2022-11-15T14:44:38;15.70;;;9.52;;
25988;SDS011;13778;48.236;9.894;2022-11-15T14:47:29;11.73;;;7.75;;
25988;SDS011;13778;48.236;9.894;2022-11-15T14:50:20;10.48;;;6.25;;
25988;SDS011;13778;48.236;9.894;2022-11-15T14:53:11;10.87;;;7.03;;
25988;SDS011;13778;48.236;9.894;2022-11-15T14:56:03;9.15;;;6.80;;
25988;SDS011;13778;48.236;9.894;2022-11-15T14:58:54;12.73;;;6.38;;
25988;SDS011;13778;48.236;9.894;2022-11-15T15:01:45;8.63;;;6.35;;
25988;SDS011;13778;48.236;9.894;2022-11-15T15:04:35;9.48;;;5.70;;
25988;SDS011;13778;48.236;9.894;2022-11-15T15:07:25;8.45;;;6.35;;
25988;SDS011;13778;48.236;9.894;2022-11-15T15:10:16;8.10;;;5.82;;
25988;SDS011;13778;48.236;9.894;2022-11-15T15:13:12;10.10;;;7.13;;
25988;SDS011;13778;48.236;9.894;2022-11-15T15:16:05;7.93;;;6.95;;
25988;SDS011;13778;48.236;9.894;2022-11-15T15:18:56;11.55;;;6.88;;
25988;SDS011;13778;48.236;9.894;2022-11-15T15:21:46;16.63;;;7.10;;
25988;SDS011;13778;48.236;9.894;2022-11-15T15:24:37;12.95;;;6.28;;
25988;SDS011;13778;48.236;9.894;2022-11-15T15:27:27;16.50;;;6.78;;
25988;SDS011;13778;48.236;9.894;2022-11-15T15:30:19;9.18;;;6.10;;
25988;SDS011;13778;48.236;9.894;2022-11-15T15:36:00;14.13;;;7.30;;
25988;SDS011;13778;48.236;9.894;2022-11-15T15:38:50;15.00;;;9.98;;
25988;SDS011;13778;48.236;9.894;2022-11-15T15:41:41;21.77;;;11.38;;
25988;SDS011;13778;48.236;9.894;2022-11-15T15:44:32;19.67;;;11.10;;
25988;SDS011;13778;48.236;9.894;2022-11-15T15:47:24;22.65;;;11.10;;
25988;SDS011;13778;48.236;9.894;2022-11-15T15:50:22;13.50;;;8.30;;
25988;SDS011;13778;48.236;9.894;2022-11-15T15:53:14;14.82;;;8.02;;
25988;SDS011;13778;48.236;9.894;2022-11-15T15:56:04;16.30;;;7.53;;
25988;SDS011;13778;48.236;9.894;2022-11-15T15:58:56;10.98;;;8.07;;
25988;SDS011;13778;48.236;9.894;2022-11-15T16:01:47;15.75;;;6.82;;
25988;SDS011;13778;48.236;9.894;2022-11-15T16:04:39;10.45;;;7.25;;
25988;SDS011;13778;48.236;9.894;2022-11-15T16:07:29;12.98;;;7.45;;
25988;SDS011;13778;48.236;9.894;2022-11-15T16:10:21;9.88;;;7.50;;
25988;SDS011;13778;48.236;9.894;2022-11-15T16:13:12;13.13;;;8.48;;
25988;SDS011;13778;48.236;9.894;2022-11-15T16:16:02;10.73;;;8.43;;
25988;SDS011;13778;48.236;9.894;2022-11-15T16:18:53;12.82;;;7.95;;
25988;SDS011;13778;48.236;9.894;2022-11-15T16:21:45;10.23;;;7.28;;
25988;SDS011;13778;48.236;9.894;2022-11-15T16:24:35;10.70;;;7.75;;
25988;SDS011;13778;48.236;9.894;2022-11-15T16:27:26;12.40;;;8.52;;
25988;SDS011;13778;48.236;9.894;2022-11-15T16:30:20;18.75;;;9.35;;
25988;SDS011;13778;48.236;9.894;2022-11-15T16:33:11;12.30;;;8.65;;
25988;SDS011;13778;48.236;9.894;2022-11-15T16:36:01;15.73;;;9.65;;
25988;SDS011;13778;48.236;9.894;2022-11-15T16:38:53;15.27;;;9.65;;
25988;SDS011;13778;48.236;9.894;2022-11-15T16:41:44;14.15;;;10.65;;
25988;SDS011;13778;48.236;9.894;2022-11-15T16:44:35;57.95;;;31.77;;
25988;SDS011;13778;48.236;9.894;2022-11-15T16:47:26;42.40;;;23.40;;
25988;SDS011;13778;48.236;9.894;2022-11-15T16:50:18;29.88;;;18.05;;
25988;SDS011;13778;48.236;9.894;2022-11-15T16:53:12;23.30;;;14.70;;
25988;SDS011;13778;48.236;9.894;2022-11-15T16:56:03;24.13;;;15.80;;
25988;SDS011;13778;48.236;9.894;2022-11-15T16:59:00;25.50;;;16.02;;
25988;SDS011;13778;48.236;9.894;2022-11-15T17:01:50;23.55;;;15.68;;
25988;SDS011;13778;48.236;9.894;2022-11-15T17:04:40;24.55;;;17.05;;
25988;SDS011;13778;48.236;9.894;2022-11-15T17:07:31;25.42;;;16.13;;
25988;SDS011;13778;48.236;9.894;2022-11-15T17:10:22;29.85;;;18.88;;
25988;SDS011;13778;48.236;9.894;2022-11-15T17:13:14;25.58;;;17.70;;
25988;SDS011;13778;48.236;9.894;2022-11-15T17:16:05;25.45;;;16.65;;
25988;SDS011;13778;48.236;9.894;2022-11-15T17:18:56;26.60;;;17.10;;
25988;SDS011;13778;48.236;9.894;2022-11-15T17:21:46;25.48;;;17.17;;
25988;SDS011;13778;48.236;9.894;2022-11-15T17:27:28;27.17;;;16.75;;
25988;SDS011;13778;48.236;9.894;2022-11-15T17:30:20;29.98;;;19.15;;
25988;SDS011;13778;48.236;9.894;2022-11-15T17:33:11;29.05;;;19.35;;
25988;SDS011;13778;48.236;9.894;2022-11-15T17:36:02;27.48;;;18.05;;
25988;SDS011;13778;48.236;9.894;2022-11-15T17:38:53;26.73;;;16.92;;
25988;SDS011;13778;48.236;9.894;2022-11-15T17:41:43;27.90;;;17.05;;
25988;SDS011;13778;48.236;9.894;2022-11-15T17:44:34;31.30;;;20.45;;
25988;SDS011;13778;48.236;9.894;2022-11-15T17:47:26;25.15;;;14.68;;
25988;SDS011;13778;48.236;9.894;2022-11-15T17:53:07;11.93;;;9.20;;
25988;SDS011;13778;48.236;9.894;2022-11-15T17:56:00;14.90;;;10.27;;
25988;SDS011;13778;48.236;9.894;2022-11-15T18:01:40;22.38;;;15.32;;
25988;SDS011;13778;48.236;9.894;2022-11-15T18:04:32;21.10;;;15.15;;
25988;SDS011;13778;48.236;9.894;2022-11-15T18:07:22;16.58;;;12.35;;
25988;SDS011;13778;48.236;9.894;2022-11-15T18:10:13;17.40;;;14.23;;
25988;SDS011;13778;48.236;9.894;2022-11-15T18:13:03;18.80;;;14.05;;
25988;SDS011;13778;48.236;9.894;2022-11-15T18:15:54;19.58;;;13.93;;
25988;SDS011;13778;48.236;9.894;2022-11-15T18:18:50;19.90;;;13.73;;
25988;SDS011;13778;48.236;9.894;2022-11-15T18:21:43;20.50;;;14.60;;
25988;SDS011;13778;48.236;9.894;2022-11-15T18:24:45;18.58;;;14.02;;
25988;SDS011;13778;48.236;9.894;2022-11-15T18:27:36;17.10;;;13.67;;
25988;SDS011;13778;48.236;9.894;2022-11-15T18:30:27;19.97;;;13.77;;
25988;SDS011;13778;48.236;9.894;2022-11-15T18:33:18;17.88;;;13.40;;
25988;SDS011;13778;48.236;9.894;2022-11-15T18:36:09;21.33;;;14.57;;
25988;SDS011;13778;48.236;9.894;2022-11-15T18:39:02;22.50;;;16.08;;
25988;SDS011;13778;48.236;9.894;2022-11-15T18:41:53;24.02;;;16.55;;
25988;SDS011;13778;48.236;9.894;2022-11-15T18:44:43;24.55;;;16.30;;
25988;SDS011;13778;48.236;9.894;2022-11-15T18:47:34;27.42;;;18.75;;
25988;SDS011;13778;48.236;9.894;2022-11-15T18:50:26;26.13;;;15.43;;
25988;SDS011;13778;48.236;9.894;2022-11-15T18:53:16;26.52;;;18.90;;
25988;SDS011;13778;48.236;9.894;2022-11-15T18:56:08;25.45;;;18.50;;
25988;SDS011;13778;48.236;9.894;2022-11-15T18:58:59;22.40;;;17.10;;
25988;SDS011;13778;48.236;9.894;2022-11-15T19:01:50;20.88;;;15.75;;
25988;SDS011;13778;48.236;9.894;2022-11-15T19:04:40;21.90;;;16.60;;
25988;SDS011;13778;48.236;9.894;2022-11-15T19:07:31;30.65;;;22.15;;
25988;SDS011;13778;48.236;9.894;2022-11-15T19:10:21;31.65;;;21.77;;
25988;SDS011;13778;48.236;9.894;2022-11-15T19:13:13;42.88;;;25.98;;
25988;SDS011;13778;48.236;9.894;2022-11-15T19:16:04;47.28;;;29.55;;
25988;SDS011;13778;48.236;9.894;2022-11-15T19:18:56;28.73;;;18.90;;
25988;SDS011;13778;48.236;9.894;2022-11-15T19:21:47;25.35;;;18.13;;
25988;SDS011;13778;48.236;9.894;2022-11-15T19:24:37;28.98;;;20.50;;
25988;SDS011;13778;48.236;9.894;2022-11-15T19:27:28;35.08;;;21.90;;
25988;SDS011;13778;48.236;9.894;2022-11-15T19:30:19;31.90;;;22.65;;
25988;SDS011;13778;48.236;9.894;2022-11-15T19:33:10;30.73;;;20.45;;
25988;SDS011;13778;48.236;9.894;2022-11-15T19:36:01;26.25;;;19.42;;
25988;SDS011;13778;48.236;9.894;2022-11-15T19:38:51;26.95;;;17.65;;
25988;SDS011;13778;48.236;9.894;2022-11-15T19:41:42;33.28;;;17.60;;
25988;SDS011;13778;48.236;9.894;2022-11-15T19:44:33;33.35;;;21.98;;
25988;SDS011;13778;48.236;9.894;2022-11-15T19:47:24;37.67;;;21.85;;
25988;SDS011;13778;48.236;9.894;2022-11-15T19:50:16;41.08;;;26.08;;
25988;SDS011;13778;48.236;9.894;2022-11-15T19:53:07;68.65;;;37.47;;
25988;SDS011;13778;48.236;9.894;2022-11-15T19:55:58;23.95;;;16.23;;
25988;SDS011;13778;48.236;9.894;2022-11-15T19:58:49;21.60;;;15.93;;
25988;SDS011;13778;48.236;9.894;2022-11-15T20:01:40;27.83;;;18.02;;
25988;SDS011;13778;48.236;9.894;2022-11-15T20:04:32;25.80;;;15.02;;
25988;SDS011;13778;48.236;9.894;2022-11-15T20:10:13;18.33;;;14.38;;
25988;SDS011;13778;48.236;9.894;2022-11-15T20:13:03;24.60;;;13.88;;
25988;SDS011;13778;48.236;9.894;2022-11-15T20:15:54;18.17;;;13.15;;
25988;SDS011;13778;48.236;9.894;2022-11-15T20:18:44;20.52;;;12.27;;
25988;SDS011;13778;48.236;9.894;2022-11-15T20:21:36;21.27;;;15.45;;
25988;SDS011;13778;48.236;9.894;2022-11-15T20:24:27;44.33;;;23.42;;
25988;SDS011;13778;48.236;9.894;2022-11-15T20:27:18;25.90;;;17.77;;
25988;SDS011;13778;48.236;9.894;2022-11-15T20:30:08;25.77;;;16.73;;
25988;SDS011;13778;48.236;9.894;2022-11-15T20:32:59;26.43;;;17.17;;
25988;SDS011;13778;48.236;9.894;2022-11-15T20:35:49;29.42;;;16.58;;
25988;SDS011;13778;48.236;9.894;2022-11-15T20:38:41;17.63;;;11.82;;
25988;SDS011;13778;48.236;9.894;2022-11-15T20:44:22;21.80;;;13.13;;
25988;SDS011;13778;48.236;9.894;2022-11-15T20:47:12;26.95;;;14.60;;
25988;SDS011;13778;48.236;9.894;2022-11-15T20:50:03;25.83;;;14.13;;
25988;SDS011;13778;48.236;9.894;2022-11-15T20:52:54;34.95;;;18.83;;
25988;SDS011;13778;48.236;9.894;2022-11-15T20:58:38;27.77;;;14.45;;
25988;SDS011;13778;48.236;9.894;2022-11-15T21:01:28;25.85;;;14.45;;
25988;SDS011;13778;48.236;9.894;2022-11-15T21:04:20;16.65;;;11.68;;
25988;SDS011;13778;48.236;9.894;2022-11-15T21:07:10;21.10;;;12.07;;
25988;SDS011;13778;48.236;9.894;2022-11-15T21:10:01;22.38;;;12.60;;
25988;SDS011;13778;48.236;9.894;2022-11-15T21:13:08;15.43;;;11.07;;
25988;SDS011;13778;48.236;9.894;2022-11-15T21:16:00;15.32;;;11.40;;
25988;SDS011;13778;48.236;9.894;2022-11-15T21:18:52;19.85;;;11.35;;
25988;SDS011;13778;48.236;9.894;2022-11-15T21:21:42;15.13;;;11.07;;
25988;SDS011;13778;48.236;9.894;2022-11-15T21:24:33;14.15;;;10.93;;
25988;SDS011;13778;48.236;9.894;2022-11-15T21:27:23;16.98;;;12.77;;
25988;SDS011;13778;48.236;9.894;2022-11-15T21:30:14;15.63;;;11.73;;
25988;SDS011;13778;48.236;9.894;2022-11-15T21:33:05;18.60;;;12.95;;
25988;SDS011;13778;48.236;9.894;2022-11-15T21:35:56;18.00;;;12.02;;
25988;SDS011;13778;48.236;9.894;2022-11-15T21:38:47;23.67;;;14.65;;
25988;SDS011;13778;48.236;9.894;2022-11-15T21:41:38;16.73;;;13.10;;
25988;SDS011;13778;48.236;9.894;2022-11-15T21:44:29;20.70;;;13.30;;
25988;SDS011;13778;48.236;9.894;2022-11-15T21:47:19;19.90;;;13.80;;
25988;SDS011;13778;48.236;9.894;2022-11-15T21:50:11;19.00;;;12.82;;
25988;SDS011;13778;48.236;9.894;2022-11-15T21:53:02;19.02;;;13.48;;
25988;SDS011;13778;48.236;9.894;2022-11-15T21:55:52;21.85;;;14.10;;
25988;SDS011;13778;48.236;9.894;2022-11-15T21:58:43;19.20;;;13.43;;
25988;SDS011;13778;48.236;9.894;2022-11-15T22:01:34;18.85;;;13.27;;
25988;SDS011;13778;48.236;9.894;2022-11-15T22:04:42;24.25;;;13.82;;
25988;SDS011;13778;48.236;9.894;2022-11-15T22:07:34;22.40;;;14.05;;
25988;SDS011;13778;48.236;9.894;2022-11-15T22:10:24;20.58;;;15.02;;
25988;SDS011;13778;48.236;9.894;2022-11-15T22:13:15;20.00;;;13.63;;
25988;SDS011;13778;48.236;9.894;2022-11-15T22:16:05;20.63;;;14.20;;
25988;SDS011;13778;48.236;9.894;2022-11-15T22:18:56;21.33;;;13.73;;
25988;SDS011;13778;48.236;9.894;2022-11-15T22:21:46;23.27;;;14.18;;
25988;SDS011;13778;48.236;9.894;2022-11-15T22:24:39;21.50;;;15.25;;
25988;SDS011;13778;48.236;9.894;2022-11-15T22:30:19;23.38;;;14.93;;
25988;SDS011;13778;48.236;9.894;2022-11-15T22:33:10;23.95;;;14.10;;
25988;SDS011;13778;48.236;9.894;2022-11-15T22:36:02;19.30;;;13.75;;
25988;SDS011;13778;48.236;9.894;2022-11-15T22:38:53;19.73;;;13.55;;
25988;SDS011;13778;48.236;9.894;2022-11-15T22:41:45;21.63;;;13.27;;
25988;SDS011;13778;48.236;9.894;2022-11-15T22:47:26;16.45;;;12.05;;
25988;SDS011;13778;48.236;9.894;2022-11-15T22:50:16;22.30;;;13.45;;
25988;SDS011;13778;48.236;9.894;2022-11-15T22:53:07;20.75;;;12.98;;
25988;SDS011;13778;48.236;9.894;2022-11-15T22:55:58;20.27;;;13.30;;
25988;SDS011;13778;48.236;9.894;2022-11-15T22:58:50;19.35;;;12.45;;
25988;SDS011;13778;48.236;9.894;2022-11-15T23:04:31;16.92;;;12.43;;
25988;SDS011;13778;48.236;9.894;2022-11-15T23:07:21;18.40;;;13.35;;
25988;SDS011;13778;48.236;9.894;2022-11-15T23:10:12;14.95;;;11.82;;
25988;SDS011;13778;48.236;9.894;2022-11-15T23:13:20;18.48;;;12.63;;
25988;SDS011;13778;48.236;9.894;2022-11-15T23:16:12;16.60;;;12.10;;
25988;SDS011;13778;48.236;9.894;2022-11-15T23:19:13;19.50;;;12.85;;
25988;SDS011;13778;48.236;9.894;2022-11-15T23:22:04;21.55;;;12.60;;
25988;SDS011;13778;48.236;9.894;2022-11-15T23:25:12;23.85;;;13.52;;
25988;SDS011;13778;48.236;9.894;2022-11-15T23:28:03;18.63;;;12.77;;
25988;SDS011;13778;48.236;9.894;2022-11-15T23:31:00;18.92;;;13.13;;
25988;SDS011;13778;48.236;9.894;2022-11-15T23:34:09;19.60;;;12.23;;
25988;SDS011;13778;48.236;9.894;2022-11-15T23:37:00;17.60;;;12.45;;
25988;SDS011;13778;48.236;9.894;2022-11-15T23:39:51;17.98;;;12.52;;
25988;SDS011;13778;48.236;9.894;2022-11-15T23:42:41;16.35;;;12.13;;
25988;SDS011;13778;48.236;9.894;2022-11-15T23:45:32;19.55;;;13.52;;
25988;SDS011;13778;48.236;9.894;2022-11-15T23:48:22;21.85;;;13.45;;
25988;SDS011;13778;48.236;9.894;2022-11-15T23:51:14;20.85;;;13.02;;
25988;SDS011;13778;48.236;9.894;2022-11-15T23:56:55;18.70;;;12.95;;
25988;SDS011;13778;48.236;9.894;2022-11-15T23:59:45;18.23;;;12.85;;
